Portada
METAR-TAF:

METAR-TAF

Aeropuertos :

Valence, Francia

latitud: 44-54-58N, longitud: 4-58-06E, altitud: 160 m

Observación

El informe se hizo hace 21 minutos, a las 09:00 UTC
Viento 12 kt del sur-suroeste
Temperatura 15°C
Humedad 63%
Presión 1018 hPa
Visibilidad 10 km o más
Escasas nubes a una altura de 300 ft

METAR: LFLU 240900Z AUTO 21012KT 9999 FEW003 15/08 Q1018

Hora: 11:21 (09:21 UTC)


TAF: falta

Observaciones y pronósticos meteorológicos de más de 4000 aeropuertos (mensajes METAR y TAF).

Los puntos amarillos y rojos representan las estaciones disponibles.

Ponga el ratón en el punto deseado para ver el nombre de la estación.

Haga clic para ver las observaciones y los pronósticos meteorológicos.

Para cambiar el mapa : haga clic en los botones verdes con una cruz de color negro para hacer un zoom, en el botón verde con un guión para alejar o en las flechas verdes para mapas adyacentes.


METAR-TAF: